.
WxDataArchive / Data Records for 2008-01-29
2008-01-28 January 2008 2008-01-30

Data Records for Tuesday, 29 January 2008

Time	Temp	Chill	HIndex	Humid	Dewpt	 Wind 	HiWind	WindDir	Rain 	Barom 
-----	----	-----	------	-----	-----	------	------	-------	-----	----- 
00:00	43.3	43.3	43.3	49	25.4	1	4	270	0.00	29.538 
00:05	43.5	43.5	43.5	49	25.6	1	5	270	0.00	29.534 
00:10	43.6	43.6	43.6	48	25.2	1	6	270	0.00	29.531 
00:15	43.9	43.9	43.9	48	25.5	1	6	248	0.00	29.525 
00:20	44.3	44.3	44.3	46	24.8	3	6	248	0.00	29.521 
00:25	44.6	44.6	44.6	46	25.1	2	6	248	0.00	29.521 
00:30	44.8	44.8	44.8	46	25.3	2	9	248	0.00	29.524 
00:35	45.1	45.1	45.1	45	25.0	3	5	248	0.00	29.521 
00:40	45.2	45.2	45.2	44	24.6	3	9	248	0.00	29.520 
00:45	45.7	43.9	45.7	44	25.0	4	15	248	0.00	29.512 
00:50	45.8	44.0	45.8	44	25.1	4	11	248	0.00	29.507 
00:55	45.5	45.5	45.5	45	25.4	3	15	248	0.00	29.504 
01:00	45.4	45.4	45.4	45	25.3	3	9	270	0.00	29.502 
01:05	45.4	43.6	45.4	45	25.3	4	9	248	0.00	29.504 
01:10	45.2	45.2	45.2	46	25.7	3	9	248	0.00	29.498 
01:15	45.2	45.2	45.2	46	25.7	3	7	270	0.00	29.497 
01:20	44.9	44.9	44.9	46	25.4	3	9	270	0.00	29.495 
01:25	44.9	44.9	44.9	47	25.9	2	12	270	0.00	29.496 
01:30	44.8	44.8	44.8	47	25.8	3	7	248	0.00	29.501 
01:35	44.8	44.8	44.8	47	25.8	3	7	270	0.00	29.502 
01:40	44.8	44.8	44.8	47	25.8	3	7	248	0.00	29.501 
01:45	44.8	44.8	44.8	47	25.8	3	9	248	0.00	29.501 
01:50	44.8	44.8	44.8	48	26.3	2	7	248	0.00	29.496 
01:55	44.8	44.8	44.8	48	26.3	2	9	248	0.00	29.491 
02:00	44.8	44.8	44.8	48	26.3	2	6	248	0.00	29.497 
02:05	44.9	44.9	44.9	48	26.4	3	9	248	0.00	29.500 
02:10	45.1	45.1	45.1	49	27.1	2	6	248	0.00	29.503 
02:15	44.9	44.9	44.9	50	27.4	2	5	248	0.00	29.502 
02:20	45.1	45.1	45.1	50	27.6	2	8	248	0.00	29.501 
02:25	45.2	45.2	45.2	49	27.2	3	10	248	0.00	29.504 
02:30	45.4	45.4	45.4	49	27.4	2	7	248	0.00	29.503 
02:35	45.4	45.4	45.4	49	27.4	3	7	248	0.00	29.497 
02:40	45.4	45.4	45.4	49	27.4	2	6	248	0.00	29.491 
02:45	45.2	45.2	45.2	50	27.7	2	7	248	0.00	29.490 
02:50	45.2	45.2	45.2	50	27.7	3	12	248	0.00	29.491 
02:55	45.2	45.2	45.2	50	27.7	3	10	248	0.00	29.491 
03:00	45.1	45.1	45.1	50	27.6	3	9	248	0.00	29.495 
03:05	45.2	45.2	45.2	51	28.2	3	10	248	0.00	29.496 
03:10	45.2	45.2	45.2	51	28.2	3	7	248	0.00	29.494 
03:15	45.4	45.4	45.4	51	28.3	3	9	248	0.00	29.501 
03:20	45.5	45.5	45.5	51	28.4	3	13	248	0.00	29.498 
03:25	45.7	45.7	45.7	51	28.6	3	9	248	0.00	29.501 
03:30	45.8	44.0	45.8	52	29.2	4	12	248	0.00	29.496 
03:35	45.7	45.7	45.7	52	29.1	3	6	248	0.00	29.494 
03:40	45.7	45.7	45.7	52	29.1	3	7	248	0.00	29.492 
03:45	45.7	45.7	45.7	53	29.6	2	7	248	0.00	29.491 
03:50	45.7	45.7	45.7	54	30.0	2	9	248	0.00	29.489 
03:55	45.5	45.5	45.5	54	29.8	2	6	248	0.00	29.489 
04:00	45.4	45.4	45.4	55	30.2	2	7	248	0.00	29.484 
04:05	45.2	45.2	45.2	56	30.4	2	8	248	0.00	29.486 
04:10	44.9	44.9	44.9	57	30.6	2	7	248	0.00	29.483 
04:15	44.9	44.9	44.9	57	30.6	2	11	248	0.00	29.478 
04:20	45.1	43.2	45.1	57	30.8	4	12	248	0.00	29.477 
04:25	45.2	45.2	45.2	58	31.3	2	6	248	0.00	29.478 
04:30	45.2	45.2	45.2	58	31.3	3	13	248	0.00	29.478 
04:35	45.2	43.3	45.2	58	31.3	4	11	248	0.00	29.475 
04:40	45.1	45.1	45.1	59	31.6	2	6	248	0.00	29.476 
04:45	44.9	44.9	44.9	60	31.9	2	9	270	0.00	29.474 
04:50	44.9	44.9	44.9	60	31.9	3	7	248	0.00	29.473 
04:55	44.9	44.9	44.9	61	32.3	2	7	248	0.00	29.472 
05:00	45.1	45.1	45.1	62	32.9	3	10	248	0.00	29.469 
05:05	45.2	43.3	45.2	62	33.0	4	16	248	0.00	29.469 
05:10	45.5	43.7	45.5	62	33.2	4	16	270	0.00	29.471 
05:15	45.8	44.0	45.8	62	33.5	4	11	248	0.00	29.472 
05:20	46.1	43.6	46.1	62	33.8	5	10	248	0.00	29.474 
05:25	46.4	44.7	46.4	62	34.1	4	11	248	0.00	29.474 
05:30	46.4	46.4	46.4	63	34.5	3	7	248	0.00	29.472 
05:35	46.4	44.7	46.4	63	34.5	4	9	270	0.00	29.472 
05:40	46.4	44.7	46.4	63	34.5	4	10	248	0.00	29.470 
05:45	46.2	46.2	46.2	64	34.7	3	11	248	0.00	29.475 
05:50	46.2	44.5	46.2	65	35.1	4	9	248	0.00	29.475 
05:55	46.2	43.8	46.2	66	35.5	5	12	248	0.00	29.477 
06:00	46.2	43.8	46.2	67	35.9	5	12	270	0.00	29.475 
06:05	46.2	46.2	46.2	69	36.6	3	9	248	0.00	29.476 
06:10	46.1	46.1	46.1	70	36.9	3	9	248	0.00	29.475 
06:15	46.1	44.4	46.1	71	37.2	4	8	248	0.00	29.476 
06:20	46.1	46.1	46.1	72	37.6	2	8	248	0.00	29.477 
06:25	46.1	46.1	46.1	73	37.9	3	9	248	0.00	29.471 
06:30	46.1	44.4	46.1	73	37.9	4	12	248	0.00	29.473 
06:35	46.1	46.1	46.1	74	38.3	2	6	270	0.00	29.474 
06:40	46.2	44.5	46.2	75	38.7	4	11	248	0.00	29.474 
06:45	46.2	46.2	46.2	75	38.7	3	7	270	0.00	29.474 
06:50	46.2	46.2	46.2	75	38.7	3	10	248	0.00	29.475 
06:55	46.2	46.2	46.2	76	39.1	3	5	248	0.00	29.476 
07:00	46.2	46.2	46.2	76	39.1	3	7	248	0.00	29.481 
07:05	46.4	44.7	46.4	76	39.3	4	9	248	0.00	29.479 
07:10	46.5	46.5	46.5	75	39.0	3	7	248	0.00	29.477 
07:15	46.5	46.5	46.5	76	39.3	3	9	248	0.00	29.477 
07:20	46.5	46.5	46.5	75	39.0	3	9	248	0.00	29.473 
07:25	46.5	46.5	46.5	75	39.0	2	6	248	0.00	29.474 
07:30	46.5	44.8	46.5	75	39.0	4	13	248	0.00	29.473 
07:35	46.7	45.1	46.7	75	39.2	4	10	248	0.00	29.473 
07:40	46.7	46.7	46.7	75	39.2	3	9	248	0.00	29.474 
07:45	46.8	45.2	46.8	75	39.3	4	10	270	0.00	29.471 
07:50	46.8	46.8	46.8	75	39.3	3	9	248	0.00	29.472 
07:55	46.8	46.8	46.8	75	39.3	3	10	248	0.00	29.468 
08:00	46.8	45.2	46.8	75	39.3	4	7	248	0.00	29.464 
08:05	46.8	46.8	46.8	75	39.3	3	7	270	0.00	29.464 
08:10	46.7	46.7	46.7	75	39.2	3	10	248	0.00	29.467 
08:15	46.7	45.1	46.7	75	39.2	4	9	248	0.00	29.471 
08:20	46.5	46.5	46.5	75	39.0	2	6	248	0.00	29.469 
08:25	46.4	46.4	46.4	75	38.9	2	6	225	0.00	29.471 
08:30	46.2	46.2	46.2	76	39.1	2	5	248	0.00	29.470 
08:35	46.0	46.0	46.0	76	38.9	2	11	248	0.00	29.471 
08:40	45.8	45.8	45.8	75	38.3	3	10	270	0.00	29.471 
08:45	45.8	45.8	45.8	75	38.3	3	11	248	0.00	29.467 
08:50	45.7	45.7	45.7	74	37.9	2	6	270	0.00	29.467 
08:55	45.7	45.7	45.7	74	37.9	2	7	270	0.00	29.466 
09:00	45.5	45.5	45.5	74	37.7	2	7	270	0.00	29.466 
09:05	45.5	45.5	45.5	74	37.7	2	9	270	0.00	29.466 
09:10	45.4	45.4	45.4	74	37.6	2	6	248	0.00	29.463 
09:15	45.4	45.4	45.4	75	37.9	2	6	248	0.00	29.459 
09:20	45.2	45.2	45.2	75	37.8	2	5	270	0.00	29.456 
09:25	45.2	45.2	45.2	75	37.8	2	5	248	0.00	29.454 
09:30	45.2	45.2	45.2	76	38.1	2	6	270	0.00	29.449 
09:35	45.2	45.2	45.2	76	38.1	2	5	202	0.00	29.453 
09:40	45.2	45.2	45.2	76	38.1	3	7	270	0.00	29.449 
09:45	45.2	45.2	45.2	77	38.4	1	5	292	0.00	29.442 
09:50	45.2	45.2	45.2	77	38.4	2	6	248	0.00	29.444 
09:55	45.2	45.2	45.2	77	38.4	2	9	248	0.00	29.446 
10:00	45.2	45.2	45.2	77	38.4	2	7	248	0.00	29.448 
10:05	45.2	45.2	45.2	77	38.4	2	10	270	0.00	29.445 
10:10	45.1	45.1	45.1	78	38.7	3	10	248	0.00	29.441 
10:15	45.1	45.1	45.1	78	38.7	2	6	248	0.00	29.439 
10:20	45.2	45.2	45.2	79	39.1	1	5	270	0.00	29.434 
10:25	45.2	45.2	45.2	79	39.1	2	7	22	0.00	29.427 
10:30	45.4	45.4	45.4	79	39.3	2	6	270	0.00	29.428 
10:35	45.5	45.5	45.5	80	39.7	2	7	270	0.00	29.425 
10:40	45.5	45.5	45.5	80	39.7	3	12	248	0.00	29.423 
10:45	45.5	45.5	45.5	81	40.0	2	7	90	0.00	29.421 
10:50	45.5	45.5	45.5	82	40.3	3	11	90	0.00	29.410 
10:55	45.7	45.7	45.7	83	40.8	3	6	22	0.00	29.407 
11:00	45.8	45.8	45.8	83	40.9	2	7	45	0.00	29.407 
11:05	45.8	45.8	45.8	84	41.2	3	10	68	0.00	29.406 
11:10	46.0	46.0	46.0	84	41.4	2	6	315	0.00	29.407 
11:15	45.8	45.8	45.8	84	41.2	3	7	248	0.00	29.411 
11:20	45.8	45.8	45.8	85	41.6	1	8	270	0.00	29.407 
11:25	45.8	45.8	45.8	85	41.6	3	9	248	0.00	29.407 
11:30	45.8	45.8	45.8	85	41.6	3	9	270	0.00	29.407 
11:35	45.8	45.8	45.8	86	41.9	3	6	248	0.00	29.403 
11:40	46.0	46.0	46.0	86	42.0	2	6	270	0.00	29.397 
11:45	46.0	46.0	46.0	86	42.0	2	6	270	0.00	29.393 
11:50	46.0	46.0	46.0	87	42.4	2	7	270	0.00	29.392 
11:55	46.0	46.0	46.0	87	42.4	1	4	270	0.00	29.391 
12:00	46.0	46.0	46.0	87	42.4	1	5	90	0.00	29.385 
12:05	46.0	46.0	46.0	87	42.4	2	5	90	0.00	29.377 
12:10	46.0	46.0	46.0	88	42.6	2	7	135	0.00	29.371 
12:15	46.0	46.0	46.0	88	42.6	1	5	22	0.00	29.359 
12:20	46.1	46.1	46.1	88	42.7	1	4	22	0.00	29.358 
12:25	46.1	46.1	46.1	88	42.7	2	9	248	0.00	29.358 
12:30	46.1	46.1	46.1	88	42.7	1	7	248	0.00	29.358 
12:35	46.0	46.0	46.0	88	42.6	2	6	248	0.00	29.355 
12:40	46.0	46.0	46.0	88	42.6	2	6	112	0.00	29.347 
12:45	46.0	46.0	46.0	88	42.6	2	7	270	0.00	29.341 
12:50	46.0	46.0	46.0	89	42.9	1	3	270	0.00	29.339 
12:55	45.8	45.8	45.8	89	42.7	2	9	292	0.00	29.336 
13:00	45.8	45.8	45.8	89	42.7	2	13	68	0.00	29.331 
13:05	45.8	45.8	45.8	89	42.7	1	5	248	0.00	29.329 
13:10	45.8	45.8	45.8	90	43.0	1	4	270	0.00	29.326 
13:15	45.8	45.8	45.8	90	43.0	2	7	248	0.00	29.320 
13:20	45.8	45.8	45.8	90	43.0	1	5	292	0.00	29.316 
13:25	45.8	45.8	45.8	91	43.3	3	9	248	0.00	29.311 
13:30	45.8	45.8	45.8	91	43.3	2	6	45	0.00	29.307 
13:35	45.8	45.8	45.8	92	43.6	2	7	90	0.00	29.298 
13:40	45.8	45.8	45.8	92	43.6	1	3	112	0.00	29.295 
13:45	45.8	45.8	45.8	92	43.6	1	4	45	0.00	29.292 
13:50	45.7	45.7	45.7	93	43.8	1	4	112	0.00	29.282 
13:55	45.8	45.8	45.8	93	43.9	2	4	68	0.00	29.279 
14:00	45.7	45.7	45.7	93	43.8	1	6	45	0.00	29.279 
14:05	45.7	45.7	45.7	93	43.8	2	8	112	0.00	29.280 
14:10	45.7	45.7	45.7	93	43.8	2	7	112	0.00	29.277 
14:15	45.8	45.8	45.8	93	43.9	2	6	0	0.00	29.264 
14:20	45.8	45.8	45.8	94	44.2	1	4	68	0.00	29.262 
14:25	45.8	45.8	45.8	94	44.2	1	6	45	0.00	29.259 
14:30	46.0	46.0	46.0	94	44.4	1	4	270	0.00	29.251 
14:35	46.1	46.1	46.1	94	44.5	1	4	45	0.00	29.247 
14:40	46.1	46.1	46.1	94	44.5	2	5	45	0.00	29.240 
14:45	46.2	46.2	46.2	94	44.6	2	9	90	0.00	29.236 
14:50	46.4	46.4	46.4	94	44.8	2	9	90	0.00	29.234 
14:55	46.4	46.4	46.4	94	44.8	1	8	68	0.00	29.230 
15:00	46.5	46.5	46.5	94	44.9	1	5	292	0.00	29.230 
15:05	46.7	46.7	46.7	94	45.1	2	4	22	0.00	29.226 
15:10	46.7	46.7	46.7	94	45.1	2	4	68	0.00	29.221 
15:15	46.8	46.8	46.8	94	45.2	2	5	68	0.00	29.218 
15:20	47.0	47.0	47.0	94	45.4	2	5	90	0.00	29.218 
15:25	47.0	47.0	47.0	94	45.4	2	6	90	0.00	29.213 
15:30	47.1	47.1	47.1	94	45.5	2	7	248	0.00	29.213 
15:35	47.3	47.3	47.3	94	45.7	2	7	292	0.00	29.206 
15:40	47.3	47.3	47.3	94	45.7	3	11	68	0.00	29.201 
15:45	47.4	47.4	47.4	94	45.8	3	7	270	0.00	29.200 
15:50	47.4	47.4	47.4	94	45.8	2	6	0	0.00	29.200 
15:55	47.6	47.6	47.6	94	46.0	2	6	315	0.00	29.198 
16:00	47.7	47.7	47.7	94	46.1	2	6	90	0.00	29.191 
16:05	47.7	47.7	47.7	94	46.1	3	9	68	0.00	29.189 
16:10	47.9	47.9	47.9	94	46.3	2	6	112	0.00	29.183 
16:15	47.9	47.9	47.9	94	46.3	3	7	112	0.00	29.179 
16:20	48.0	48.0	48.0	94	46.4	2	5	45	0.00	29.177 
16:25	48.2	48.2	48.2	94	46.6	2	6	90	0.00	29.168 
16:30	48.5	48.5	48.5	94	46.9	2	6	68	0.00	29.166 
16:35	48.6	48.6	48.6	96	47.5	2	6	90	0.00	29.161 
16:40	48.8	48.8	48.8	94	47.1	3	11	90	0.00	29.154 
16:45	49.1	47.8	49.1	94	47.4	4	14	90	0.00	29.151 
16:50	49.1	49.1	49.1	93	47.2	3	6	90	0.00	29.151 
16:55	49.1	49.1	49.1	93	47.2	3	9	90	0.00	29.152 
17:00	49.1	49.1	49.1	93	47.2	2	6	90	0.00	29.153 
17:05	49.1	49.1	49.1	93	47.2	3	11	90	0.00	29.153 
17:10	49.1	49.1	49.1	93	47.2	2	5	90	0.00	29.146 
17:15	49.2	49.2	49.2	93	47.3	3	10	90	0.00	29.148 
17:20	49.2	49.2	49.2	93	47.3	3	10	68	0.00	29.141 
17:25	49.4	49.4	49.4	93	47.5	3	9	90	0.00	29.136 
17:30	49.5	49.5	49.5	93	47.6	3	12	90	0.00	29.135 
17:35	49.6	49.6	49.6	93	47.7	3	11	112	0.00	29.140 
17:40	49.8	49.8	49.8	93	47.9	3	7	135	0.00	29.142 
17:45	49.9	49.9	49.9	93	48.0	3	11	90	0.00	29.129 
17:50	49.9	49.9	49.9	93	48.0	3	7	90	0.00	29.127 
17:55	50.1	50.1	50.1	93	48.2	2	7	45	0.00	29.124 
18:00	50.1	50.1	50.1	93	48.2	2	6	90	0.00	29.117 
18:05	50.1	50.1	50.1	92	47.9	2	5	112	0.00	29.112 
18:10	50.2	50.2	50.2	93	48.3	3	7	90	0.00	29.101 
18:15	50.4	50.4	50.4	92	48.2	3	7	90	0.00	29.098 
18:20	50.4	50.4	50.4	92	48.2	3	10	90	0.00	29.095 
18:25	50.7	50.7	50.7	92	48.5	2	6	112	0.00	29.089 
18:30	50.7	50.7	50.7	92	48.5	2	6	112	0.00	29.083 
18:35	51.0	51.0	51.0	92	48.8	4	11	90	0.00	29.077 
18:40	51.1	51.1	51.1	91	48.6	4	11	90	0.00	29.070 
18:45	51.3	51.3	51.3	91	48.8	3	7	90	0.00	29.066 
18:50	51.4	51.4	51.4	90	48.6	3	7	90	0.00	29.063 
18:55	51.6	51.6	51.6	90	48.8	3	9	90	0.00	29.058 
19:00	51.6	51.6	51.6	90	48.8	3	13	90	0.00	29.044 
19:05	51.7	51.7	51.7	90	48.9	4	12	112	0.00	29.037 
19:10	51.7	51.7	51.7	89	48.6	3	10	112	0.01	29.036 
19:15	51.6	51.6	51.6	90	48.8	2	6	112	0.00	29.032 
19:20	51.4	51.4	51.4	90	48.6	2	6	90	0.00	29.025 
19:25	51.4	51.4	51.4	91	48.9	3	6	112	0.00	29.022 
19:30	51.6	51.6	51.6	91	49.1	4	8	112	0.00	29.021 
19:35	51.6	51.6	51.6	92	49.4	4	11	90	0.00	29.013 
19:40	51.6	51.6	51.6	92	49.4	3	7	112	0.00	29.008 
19:45	51.4	51.4	51.4	92	49.2	4	10	90	0.00	29.004 
19:50	51.6	51.6	51.6	92	49.4	4	10	90	0.01	28.999 
19:55	51.6	51.6	51.6	92	49.4	3	13	90	0.00	28.990 
20:00	51.7	51.7	51.7	92	49.5	4	11	90	0.00	28.988 
20:05	51.9	51.9	51.9	91	49.4	4	11	90	0.00	28.979 
20:10	52.0	52.0	52.0	91	49.5	5	13	90	0.00	28.972 
20:15	52.2	52.2	52.2	90	49.4	6	23	90	0.00	28.970 
20:20	52.5	52.5	52.5	89	49.4	6	14	90	0.00	28.965 
20:25	52.8	52.8	52.8	89	49.6	6	17	90	0.00	28.963 
20:30	52.8	52.8	52.8	89	49.6	6	13	90	0.01	28.949 
20:35	52.6	52.6	52.6	90	49.7	5	13	90	0.01	28.956 
20:40	52.3	52.3	52.3	91	49.8	7	19	90	0.04	28.990 
20:45	49.8	46.5	49.8	88	46.4	8	20	270	0.07	29.024 
20:50	47.9	44.7	47.9	89	44.8	7	20	270	0.02	29.017 
20:55	46.7	45.1	46.7	90	43.9	4	14	270	0.00	28.997 
21:00	46.0	43.5	46.0	91	43.5	5	12	270	0.00	28.995 
21:05	45.5	42.9	45.5	91	43.0	5	14	270	0.01	29.020 
21:10	45.2	43.3	45.2	92	43.0	4	12	270	0.02	29.028 
21:15	44.9	42.2	44.9	92	42.7	5	13	270	0.00	29.029 
21:20	44.6	41.9	44.6	92	42.4	5	14	270	0.01	29.042 
21:25	44.3	40.9	44.3	92	42.1	6	21	270	0.00	29.052 
21:30	43.8	38.4	43.8	92	41.6	10	18	270	0.01	29.057 
21:35	42.5	37.2	42.5	90	39.8	9	16	270	0.00	29.058 
21:40	41.2	36.0	41.2	90	38.5	8	23	270	0.01	29.068 
21:45	39.3	34.3	39.3	89	36.3	7	19	270	0.00	29.068 
21:50	37.9	32.6	37.9	89	35.0	7	14	270	0.01	29.083 
21:55	36.6	31.7	36.6	89	33.7	6	14	270	0.00	29.068 
22:00	36.0	31.8	36.0	90	33.4	5	12	270	0.00	29.072 
22:05	34.9	29.0	34.9	90	32.3	7	15	270	0.00	29.085 
22:10	33.7	26.9	33.7	89	30.8	8	15	270	0.00	29.104 
22:15	32.9	25.9	32.9	88	29.7	8	24	270	0.00	29.117 
22:20	32.7	27.1	32.7	89	29.8	6	19	270	0.00	29.121 
22:25	31.3	23.4	31.3	85	27.3	9	20	270	0.00	29.127 
22:30	30.0	21.8	30.0	84	25.8	9	22	270	0.00	29.149 
22:35	28.1	18.9	28.1	81	23.0	10	20	270	0.00	29.164 
22:40	26.3	16.1	26.3	79	20.7	11	25	270	0.00	29.164 
22:45	25.3	14.9	25.3	79	19.7	11	22	270	0.00	29.190 
22:50	24.5	15.7	24.5	80	19.2	8	29	270	0.00	29.198 
22:55	23.2	12.8	23.2	77	17.1	10	23	270	0.00	29.204 
23:00	21.4	9.5	21.4	76	15.0	12	25	270	0.00	29.223 
23:05	19.9	7.0	19.9	75	13.3	13	25	270	0.00	29.238 
23:10	19.1	8.4	19.1	76	12.8	9	23	270	0.00	29.240 
23:15	18.4	6.9	18.4	74	11.5	10	22	270	0.00	29.256 
23:20	17.8	6.1	17.8	73	10.6	10	19	270	0.00	29.259 
23:25	17.7	8.3	17.7	74	10.8	7	19	270	0.00	29.273 
23:30	17.8	8.4	17.8	74	10.9	7	15	270	0.00	29.280 
23:35	17.5	6.4	17.5	73	10.3	9	19	270	0.00	29.289 
23:40	17.0	5.8	17.0	71	9.2	9	22	270	0.00	29.304 
23:45	16.4	5.1	16.4	73	9.3	9	22	270	0.00	29.315 
23:50	15.4	3.2	15.4	75	8.9	10	24	270	0.00	29.322 
23:55	14.8	1.8	14.8	71	7.1	11	23	270	0.00	29.328 

CoCoRaHS
IN-AL-39
A2 Web Hosting
Creative Commons License
GoDaddy
Look for:

loaded 2017-10-18 07:07:13 • last modified 2010-11-18 10:43:29
Privacy PolicyDisclaimer
• wx.awcolley.com is powered by PmWiki v.2002016 •
• all content (unless otherwise noted) © 2017 A W Colley